Aviation Digital Data Service (ADDS)

Output produced by METARs form (0654 UTC 20 March 2019)
found at http://www.aviationweather.gov/metar/data/
 
METAR text: ZYTL 200630Z 10008MPS 1600 R10/1400 -RASN BR SCT004 BKN026 07/06 Q1005 NOSIG
Conditions at: ZYTL (DALIAN/DAIREN/LU, CN) observed 0630 UTC 20 March 2019
Temperature: 7.0°C (45°F)
Dewpoint: 6.0°C (43°F) [RH = 93%]
Pressure (altimeter): 29.68 inches Hg (1005.0 mb)
Winds: from the E (100 degrees) at 18 MPH (16 knots; 8.2 m/s)
Visibility: 0.99 miles (1.59 km)
Ceiling: 2600 feet AGL
Clouds: scattered clouds at 400 feet AGL
broken clouds at 2600 feet AGL
Weather: SN -RA BR  (moderate snow, light rain, mist)

METAR text: ZYTL 200600Z 10009MPS 3000 R10/1300 -RA BR SCT006 BKN026 07/06 Q1005 BECMG TL0630 2500 -RA BR
Conditions at: ZYTL (DALIAN/DAIREN/LU, CN) observed 0600 UTC 20 March 2019
Temperature: 7.0°C (45°F)
Dewpoint: 6.0°C (43°F) [RH = 93%]
Pressure (altimeter): 29.68 inches Hg (1005.0 mb)
Winds: from the E (100 degrees) at 20 MPH (17 knots; 8.7 m/s)
Visibility: 1.86 miles (2.99 km)
Ceiling: 2600 feet AGL
Clouds: scattered clouds at 600 feet AGL
broken clouds at 2600 feet AGL
Weather: -RA BR  (light rain, mist)

METAR text: ZYTL 200530Z 09010MPS 3000 -RA BR SCT010 BKN026 07/06 Q1005 NOSIG
Conditions at: ZYTL (DALIAN/DAIREN/LU, CN) observed 0530 UTC 20 March 2019
Temperature: 7.0°C (45°F)
Dewpoint: 6.0°C (43°F) [RH = 93%]
Pressure (altimeter): 29.68 inches Hg (1005.0 mb)
Winds: from the E (90 degrees) at 22 MPH (19 knots; 9.8 m/s)
Visibility: 1.86 miles (2.99 km)
Ceiling: 2600 feet AGL
Clouds: scattered clouds at 1000 feet AGL
broken clouds at 2600 feet AGL
Weather: -RA BR  (light rain, mist)

METAR text: ZYTL 200500Z 08008MPS 3000 -RA BR SCT006 BKN026 08/07 Q1005 BECMG TL0630 2500 BR
Conditions at: ZYTL (DALIAN/DAIREN/LU, CN) observed 0500 UTC 20 March 2019
Temperature: 8.0°C (46°F)
Dewpoint: 7.0°C (45°F) [RH = 93%]
Pressure (altimeter): 29.68 inches Hg (1005.0 mb)
Winds: from the E (80 degrees) at 18 MPH (16 knots; 8.2 m/s)
Visibility: 1.86 miles (2.99 km)
Ceiling: 2600 feet AGL
Clouds: scattered clouds at 600 feet AGL
broken clouds at 2600 feet AGL
Weather: -RA BR  (light rain, mist)

METAR text: ZYTL 200430Z 08008MPS 3000 -RA BR SCT009 BKN026 08/07 Q1007 NOSIG
Conditions at: ZYTL (DALIAN/DAIREN/LU, CN) observed 0430 UTC 20 March 2019
Temperature: 8.0°C (46°F)
Dewpoint: 7.0°C (45°F) [RH = 93%]
Pressure (altimeter): 29.73 inches Hg (1007.0 mb)
Winds: from the E (80 degrees) at 18 MPH (16 knots; 8.2 m/s)
Visibility: 1.86 miles (2.99 km)
Ceiling: 2600 feet AGL
Clouds: scattered clouds at 900 feet AGL
broken clouds at 2600 feet AGL
Weather: -RA BR  (light rain, mist)

METAR text: ZYTL 200400Z 11007MPS 090V150 3500 -RA BR SCT010 BKN033 09/07 Q1007 NOSIG
Conditions at: ZYTL (DALIAN/DAIREN/LU, CN) observed 0400 UTC 20 March 2019
Temperature: 9.0°C (48°F)
Dewpoint: 7.0°C (45°F) [RH = 87%]
Pressure (altimeter): 29.73 inches Hg (1007.0 mb)
Winds: from the ESE (110 degrees) at 16 MPH (14 knots; 7.2 m/s)
Visibility: 2.17 miles (3.49 km)
Ceiling: 3300 feet AGL
Clouds: scattered clouds at 1000 feet AGL
broken clouds at 3300 feet AGL
Weather: -RA BR  (light rain, mist)

METAR text: ZYTL 200330Z 09007MPS 3500 -RA BR BKN033 08/07 Q1008 NOSIG
Conditions at: ZYTL (DALIAN/DAIREN/LU, CN) observed 0330 UTC 20 March 2019
Temperature: 8.0°C (46°F)
Dewpoint: 7.0°C (45°F) [RH = 93%]
Pressure (altimeter): 29.76 inches Hg (1008.0 mb)
Winds: from the E (90 degrees) at 16 MPH (14 knots; 7.2 m/s)
Visibility: 2.17 miles (3.49 km)
Ceiling: 3300 feet AGL
Clouds: broken clouds at 3300 feet AGL
Weather: -RA BR  (light rain, mist)

METAR text: ZYTL 200300Z 10005MPS 8000 -RA BKN033 09/07 Q1008 NOSIG
Conditions at: ZYTL (DALIAN/DAIREN/LU, CN) observed 0300 UTC 20 March 2019
Temperature: 9.0°C (48°F)
Dewpoint: 7.0°C (45°F) [RH = 87%]
Pressure (altimeter): 29.76 inches Hg (1008.0 mb)
Winds: from the E (100 degrees) at 12 MPH (10 knots; 5.1 m/s)
Visibility: 5 miles ( 8 km)
Ceiling: 3300 feet AGL
Clouds: broken clouds at 3300 feet AGL
Weather: -RA  (light rain)

METAR text: ZYTL 200230Z 12005MPS 9999 -RA BKN033 09/06 Q1008 NOSIG
Conditions at: ZYTL (DALIAN/DAIREN/LU, CN) observed 0230 UTC 20 March 2019
Temperature: 9.0°C (48°F)
Dewpoint: 6.0°C (43°F) [RH = 81%]
Pressure (altimeter): 29.76 inches Hg (1008.0 mb)
Winds: from the ESE (120 degrees) at 12 MPH (10 knots; 5.1 m/s)
Visibility: 6 or more miles (10+ km)
Ceiling: 3300 feet AGL
Clouds: broken clouds at 3300 feet AGL
Weather: -RA  (light rain)

METAR text: ZYTL 200200Z 15005MPS 110V200 9999 -RA BKN033 11/04 Q1009 NOSIG
Conditions at: ZYTL (DALIAN/DAIREN/LU, CN) observed 0200 UTC 20 March 2019
Temperature: 11.0°C (52°F)
Dewpoint: 4.0°C (39°F) [RH = 62%]
Pressure (altimeter): 29.79 inches Hg (1009.0 mb)
Winds: from the SSE (150 degrees) at 12 MPH (10 knots; 5.1 m/s)
Visibility: 6 or more miles (10+ km)
Ceiling: 3300 feet AGL
Clouds: broken clouds at 3300 feet AGL
Weather: -RA  (light rain)

METAR text: ZYTL 200130Z 16004MPS 120V200 9999 -RA BKN033 10/04 Q1009 NOSIG
Conditions at: ZYTL (DALIAN/DAIREN/LU, CN) observed 0130 UTC 20 March 2019
Temperature: 10.0°C (50°F)
Dewpoint: 4.0°C (39°F) [RH = 66%]
Pressure (altimeter): 29.79 inches Hg (1009.0 mb)
Winds: from the SSE (160 degrees) at 9 MPH (8 knots; 4.1 m/s)
Visibility: 6 or more miles (10+ km)
Ceiling: 3300 feet AGL
Clouds: broken clouds at 3300 feet AGL
Weather: -RA  (light rain)

METAR text: ZYTL 200100Z 17007MPS 9999 SCT033 10/04 Q1009 NOSIG
Conditions at: ZYTL (DALIAN/DAIREN/LU, CN) observed 0100 UTC 20 March 2019
Temperature: 10.0°C (50°F)
Dewpoint: 4.0°C (39°F) [RH = 66%]
Pressure (altimeter): 29.79 inches Hg (1009.0 mb)
Winds: from the S (170 degrees) at 16 MPH (14 knots; 7.2 m/s)
Visibility: 6 or more miles (10+ km)
Ceiling: at least 12,000 feet AGL
Clouds: scattered clouds at 3300 feet AGL
Weather: no significant weather observed at this time

METAR text: ZYTL 200030Z 17007MPS 130V200 9999 SCT033 10/03 Q1009 NOSIG
Conditions at: ZYTL (DALIAN/DAIREN/LU, CN) observed 0030 UTC 20 March 2019
Temperature: 10.0°C (50°F)
Dewpoint: 3.0°C (37°F) [RH = 62%]
Pressure (altimeter): 29.79 inches Hg (1009.0 mb)
Winds: from the S (170 degrees) at 16 MPH (14 knots; 7.2 m/s)
Visibility: 6 or more miles (10+ km)
Ceiling: at least 12,000 feet AGL
Clouds: scattered clouds at 3300 feet AGL
Weather: no significant weather observed at this time

METAR text: ZYTL 200000Z 17008MPS 9999 SCT033 10/03 Q1009 NOSIG
Conditions at: ZYTL (DALIAN/DAIREN/LU, CN) observed 0000 UTC 20 March 2019
Temperature: 10.0°C (50°F)
Dewpoint: 3.0°C (37°F) [RH = 62%]
Pressure (altimeter): 29.79 inches Hg (1009.0 mb)
Winds: from the S (170 degrees) at 18 MPH (16 knots; 8.2 m/s)
Visibility: 6 or more miles (10+ km)
Ceiling: at least 12,000 feet AGL
Clouds: scattered clouds at 3300 feet AGL
Weather: no significant weather observed at this time

METAR text: ZYTL 192330Z 16009G14MPS 9999 SCT033 11/02 Q1008 NOSIG
Conditions at: ZYTL (DALIAN/DAIREN/LU, CN) observed 2330 UTC 19 March 2019
Temperature: 11.0°C (52°F)
Dewpoint: 2.0°C (36°F) [RH = 54%]
Pressure (altimeter): 29.76 inches Hg (1008.0 mb)
Winds: from the SSE (160 degrees) at 20 MPH (17 knots; 8.7 m/s)
gusting to 31 MPH (27 knots; 13.9 m/s)
Visibility: 6 or more miles (10+ km)
Ceiling: at least 12,000 feet AGL
Clouds: scattered clouds at 3300 feet AGL
Weather: no significant weather observed at this time

METAR text: ZYTL 192300Z 15010G16MPS 120V180 9999 SCT033 12/00 Q1008 NOSIG
Conditions at: ZYTL (DALIAN/DAIREN/LU, CN) observed 2300 UTC 19 March 2019
Temperature: 12.0°C (54°F)
Dewpoint: 0.0°C (32°F) [RH = 44%]
Pressure (altimeter): 29.76 inches Hg (1008.0 mb)
Winds: from the SSE (150 degrees) at 22 MPH (19 knots; 9.8 m/s)
gusting to 36 MPH (31 knots; 15.9 m/s)
Visibility: 6 or more miles (10+ km)
Ceiling: at least 12,000 feet AGL
Clouds: scattered clouds at 3300 feet AGL
Weather: no significant weather observed at this time

METAR text: ZYTL 192230Z 16010G16MPS 9999 SCT033 12/00 Q1007 NOSIG
Conditions at: ZYTL (DALIAN/DAIREN/LU, CN) observed 2230 UTC 19 March 2019
Temperature: 12.0°C (54°F)
Dewpoint: 0.0°C (32°F) [RH = 44%]
Pressure (altimeter): 29.73 inches Hg (1007.0 mb)
Winds: from the SSE (160 degrees) at 22 MPH (19 knots; 9.8 m/s)
gusting to 36 MPH (31 knots; 15.9 m/s)
Visibility: 6 or more miles (10+ km)
Ceiling: at least 12,000 feet AGL
Clouds: scattered clouds at 3300 feet AGL
Weather: no significant weather observed at this time

METAR text: ZYTL 192200Z 15007G12MPS 9999 SCT033 12/M00 Q1007 NOSIG
Conditions at: ZYTL (DALIAN/DAIREN/LU, CN) observed 2200 UTC 19 March 2019
Temperature: 12.0°C (54°F)
Dewpoint: 0.0°C (32°F) [RH = 44%]
Pressure (altimeter): 29.73 inches Hg (1007.0 mb)
Winds: from the SSE (150 degrees) at 16 MPH (14 knots; 7.2 m/s)
gusting to 26 MPH (23 knots; 11.8 m/s)
Visibility: 6 or more miles (10+ km)
Ceiling: at least 12,000 feet AGL
Clouds: scattered clouds at 3300 feet AGL
Weather: no significant weather observed at this time

METAR text: ZYTL 192130Z 16007G12MPS 130V210 9999 SCT033 12/M00 Q1007 NOSIG
Conditions at: ZYTL (DALIAN/DAIREN/LU, CN) observed 2130 UTC 19 March 2019
Temperature: 12.0°C (54°F)
Dewpoint: 0.0°C (32°F) [RH = 44%]
Pressure (altimeter): 29.73 inches Hg (1007.0 mb)
Winds: from the SSE (160 degrees) at 16 MPH (14 knots; 7.2 m/s)
gusting to 26 MPH (23 knots; 11.8 m/s)
Visibility: 6 or more miles (10+ km)
Ceiling: at least 12,000 feet AGL
Clouds: scattered clouds at 3300 feet AGL
Weather: no significant weather observed at this time

METAR text: ZYTL 192100Z 17005MPS 130V200 9999 SCT033 12/00 Q1008 NOSIG
Conditions at: ZYTL (DALIAN/DAIREN/LU, CN) observed 2100 UTC 19 March 2019
Temperature: 12.0°C (54°F)
Dewpoint: 0.0°C (32°F) [RH = 44%]
Pressure (altimeter): 29.76 inches Hg (1008.0 mb)
Winds: from the S (170 degrees) at 12 MPH (10 knots; 5.1 m/s)
Visibility: 6 or more miles (10+ km)
Ceiling: at least 12,000 feet AGL
Clouds: scattered clouds at 3300 feet AGL
Weather: no significant weather observed at this time

METAR text: ZYTL 192030Z 18005MPS 140V210 9999 SCT033 12/01 Q1008 NOSIG
Conditions at: ZYTL (DALIAN/DAIREN/LU, CN) observed 2030 UTC 19 March 2019
Temperature: 12.0°C (54°F)
Dewpoint: 1.0°C (34°F) [RH = 47%]
Pressure (altimeter): 29.76 inches Hg (1008.0 mb)
Winds: from the S (180 degrees) at 12 MPH (10 knots; 5.1 m/s)
Visibility: 6 or more miles (10+ km)
Ceiling: at least 12,000 feet AGL
Clouds: scattered clouds at 3300 feet AGL
Weather: no significant weather observed at this time

METAR text: ZYTL 192000Z 17005MPS 130V210 CAVOK 12/01 Q1009 NOSIG
Conditions at: ZYTL (DALIAN/DAIREN/LU, CN) observed 2000 UTC 19 March 2019
Temperature: 12.0°C (54°F)
Dewpoint: 1.0°C (34°F) [RH = 47%]
Pressure (altimeter): 29.79 inches Hg (1009.0 mb)
Winds: from the S (170 degrees) at 12 MPH (10 knots; 5.1 m/s)
Visibility: 6 or more miles (10+ km)
Ceiling: ceiling and visibility are OK
Clouds: unknown
Weather: no significant weather observed at this time

METAR text: ZYTL 191930Z 18005MPS 130V220 CAVOK 13/00 Q1009 NOSIG
Conditions at: ZYTL (DALIAN/DAIREN/LU, CN) observed 1930 UTC 19 March 2019
Temperature: 13.0°C (55°F)
Dewpoint: 0.0°C (32°F) [RH = 41%]
Pressure (altimeter): 29.79 inches Hg (1009.0 mb)
Winds: from the S (180 degrees) at 12 MPH (10 knots; 5.1 m/s)
Visibility: 6 or more miles (10+ km)
Ceiling: ceiling and visibility are OK
Clouds: unknown
Weather: no significant weather observed at this time

METAR text: ZYTL 191900Z 17006MPS CAVOK 13/M00 Q1009 NOSIG
Conditions at: ZYTL (DALIAN/DAIREN/LU, CN) observed 1900 UTC 19 March 2019
Temperature: 13.0°C (55°F)
Dewpoint: 0.0°C (32°F) [RH = 41%]
Pressure (altimeter): 29.79 inches Hg (1009.0 mb)
Winds: from the S (170 degrees) at 14 MPH (12 knots; 6.2 m/s)
Visibility: 6 or more miles (10+ km)
Ceiling: ceiling and visibility are OK
Clouds: unknown
Weather: no significant weather observed at this time

METAR text: ZYTL 191830Z 18005MPS CAVOK 12/01 Q1010 NOSIG
Conditions at: ZYTL (DALIAN/DAIREN/LU, CN) observed 1830 UTC 19 March 2019
Temperature: 12.0°C (54°F)
Dewpoint: 1.0°C (34°F) [RH = 47%]
Pressure (altimeter): 29.82 inches Hg (1010.0 mb)
Winds: from the S (180 degrees) at 12 MPH (10 knots; 5.1 m/s)
Visibility: 6 or more miles (10+ km)
Ceiling: ceiling and visibility are OK
Clouds: unknown
Weather: no significant weather observed at this time

METAR text: ZYTL 191800Z 17005MPS 140V200 CAVOK 13/02 Q1010 NOSIG
Conditions at: ZYTL (DALIAN/DAIREN/LU, CN) observed 1800 UTC 19 March 2019
Temperature: 13.0°C (55°F)
Dewpoint: 2.0°C (36°F) [RH = 47%]
Pressure (altimeter): 29.82 inches Hg (1010.0 mb)
Winds: from the S (170 degrees) at 12 MPH (10 knots; 5.1 m/s)
Visibility: 6 or more miles (10+ km)
Ceiling: ceiling and visibility are OK
Clouds: unknown
Weather: no significant weather observed at this time

METAR text: ZYTL 191730Z 18005MPS CAVOK 13/03 Q1010 NOSIG
Conditions at: ZYTL (DALIAN/DAIREN/LU, CN) observed 1730 UTC 19 March 2019
Temperature: 13.0°C (55°F)
Dewpoint: 3.0°C (37°F) [RH = 51%]
Pressure (altimeter): 29.82 inches Hg (1010.0 mb)
Winds: from the S (180 degrees) at 12 MPH (10 knots; 5.1 m/s)
Visibility: 6 or more miles (10+ km)
Ceiling: ceiling and visibility are OK
Clouds: unknown
Weather: no significant weather observed at this time

METAR text: ZYTL 191700Z 17005MPS CAVOK 13/03 Q1010 NOSIG
Conditions at: ZYTL (DALIAN/DAIREN/LU, CN) observed 1700 UTC 19 March 2019
Temperature: 13.0°C (55°F)
Dewpoint: 3.0°C (37°F) [RH = 51%]
Pressure (altimeter): 29.82 inches Hg (1010.0 mb)
Winds: from the S (170 degrees) at 12 MPH (10 knots; 5.1 m/s)
Visibility: 6 or more miles (10+ km)
Ceiling: ceiling and visibility are OK
Clouds: unknown
Weather: no significant weather observed at this time

METAR text: ZYTL 191630Z 18005MPS CAVOK 13/03 Q1010 NOSIG
Conditions at: ZYTL (DALIAN/DAIREN/LU, CN) observed 1630 UTC 19 March 2019
Temperature: 13.0°C (55°F)
Dewpoint: 3.0°C (37°F) [RH = 51%]
Pressure (altimeter): 29.82 inches Hg (1010.0 mb)
Winds: from the S (180 degrees) at 12 MPH (10 knots; 5.1 m/s)
Visibility: 6 or more miles (10+ km)
Ceiling: ceiling and visibility are OK
Clouds: unknown
Weather: no significant weather observed at this time

METAR text: ZYTL 191600Z 17004MPS CAVOK 14/02 Q1010 NOSIG
Conditions at: ZYTL (DALIAN/DAIREN/LU, CN) observed 1600 UTC 19 March 2019
Temperature: 14.0°C (57°F)
Dewpoint: 2.0°C (36°F) [RH = 44%]
Pressure (altimeter): 29.82 inches Hg (1010.0 mb)
Winds: from the S (170 degrees) at 9 MPH (8 knots; 4.1 m/s)
Visibility: 6 or more miles (10+ km)
Ceiling: ceiling and visibility are OK
Clouds: unknown
Weather: no significant weather observed at this time

METAR text: ZYTL 191530Z 18004MPS CAVOK 14/02 Q1010 NOSIG
Conditions at: ZYTL (DALIAN/DAIREN/LU, CN) observed 1530 UTC 19 March 2019
Temperature: 14.0°C (57°F)
Dewpoint: 2.0°C (36°F) [RH = 44%]
Pressure (altimeter): 29.82 inches Hg (1010.0 mb)
Winds: from the S (180 degrees) at 9 MPH (8 knots; 4.1 m/s)
Visibility: 6 or more miles (10+ km)
Ceiling: ceiling and visibility are OK
Clouds: unknown
Weather: no significant weather observed at this time

METAR text: ZYTL 191500Z 18004MPS 150V210 CAVOK 15/01 Q1011 NOSIG
Conditions at: ZYTL (DALIAN/DAIREN/LU, CN) observed 1500 UTC 19 March 2019
Temperature: 15.0°C (59°F)
Dewpoint: 1.0°C (34°F) [RH = 39%]
Pressure (altimeter): 29.85 inches Hg (1011.0 mb)
Winds: from the S (180 degrees) at 9 MPH (8 knots; 4.1 m/s)
Visibility: 6 or more miles (10+ km)
Ceiling: ceiling and visibility are OK
Clouds: unknown
Weather: no significant weather observed at this time

METAR text: ZYTL 191430Z 17004MPS CAVOK 15/01 Q1011 NOSIG
Conditions at: ZYTL (DALIAN/DAIREN/LU, CN) observed 1430 UTC 19 March 2019
Temperature: 15.0°C (59°F)
Dewpoint: 1.0°C (34°F) [RH = 39%]
Pressure (altimeter): 29.85 inches Hg (1011.0 mb)
Winds: from the S (170 degrees) at 9 MPH (8 knots; 4.1 m/s)
Visibility: 6 or more miles (10+ km)
Ceiling: ceiling and visibility are OK
Clouds: unknown
Weather: no significant weather observed at this time

METAR text: ZYTL 191400Z 17004MPS 140V210 CAVOK 15/01 Q1011 NOSIG
Conditions at: ZYTL (DALIAN/DAIREN/LU, CN) observed 1400 UTC 19 March 2019
Temperature: 15.0°C (59°F)
Dewpoint: 1.0°C (34°F) [RH = 39%]
Pressure (altimeter): 29.85 inches Hg (1011.0 mb)
Winds: from the S (170 degrees) at 9 MPH (8 knots; 4.1 m/s)
Visibility: 6 or more miles (10+ km)
Ceiling: ceiling and visibility are OK
Clouds: unknown
Weather: no significant weather observed at this time

METAR text: ZYTL 191330Z 09004MPS 070V170 5000 BR NSC 10/04 Q1011 NOSIG
Conditions at: ZYTL (DALIAN/DAIREN/LU, CN) observed 1330 UTC 19 March 2019
Temperature: 10.0°C (50°F)
Dewpoint: 4.0°C (39°F) [RH = 66%]
Pressure (altimeter): 29.85 inches Hg (1011.0 mb)
Winds: from the E (90 degrees) at 9 MPH (8 knots; 4.1 m/s)
Visibility: 3 miles ( 5 km)
Ceiling: at least 12,000 feet AGL
Clouds: sky clear below 12,000 feet AGL
Weather: BR  (mist)

METAR text: ZYTL 191300Z 09004MPS 5000 BR NSC 09/04 Q1011 NOSIG
Conditions at: ZYTL (DALIAN/DAIREN/LU, CN) observed 1300 UTC 19 March 2019
Temperature: 9.0°C (48°F)
Dewpoint: 4.0°C (39°F) [RH = 71%]
Pressure (altimeter): 29.85 inches Hg (1011.0 mb)
Winds: from the E (90 degrees) at 9 MPH (8 knots; 4.1 m/s)
Visibility: 3 miles ( 5 km)
Ceiling: at least 12,000 feet AGL
Clouds: sky clear below 12,000 feet AGL
Weather: BR  (mist)

METAR text: ZYTL 191230Z 08006MPS 5000 BR NSC 09/04 Q1011 NOSIG
Conditions at: ZYTL (DALIAN/DAIREN/LU, CN) observed 1230 UTC 19 March 2019
Temperature: 9.0°C (48°F)
Dewpoint: 4.0°C (39°F) [RH = 71%]
Pressure (altimeter): 29.85 inches Hg (1011.0 mb)
Winds: from the E (80 degrees) at 14 MPH (12 knots; 6.2 m/s)
Visibility: 3 miles ( 5 km)
Ceiling: at least 12,000 feet AGL
Clouds: sky clear below 12,000 feet AGL
Weather: BR  (mist)

METAR text: ZYTL 191200Z 08005MPS 5000 BR NSC 09/04 Q1010 NOSIG
Conditions at: ZYTL (DALIAN/DAIREN/LU, CN) observed 1200 UTC 19 March 2019
Temperature: 9.0°C (48°F)
Dewpoint: 4.0°C (39°F) [RH = 71%]
Pressure (altimeter): 29.82 inches Hg (1010.0 mb)
Winds: from the E (80 degrees) at 12 MPH (10 knots; 5.1 m/s)
Visibility: 3 miles ( 5 km)
Ceiling: at least 12,000 feet AGL
Clouds: sky clear below 12,000 feet AGL
Weather: BR  (mist)

METAR text: ZYTL 191130Z 08004MPS 5000 BR NSC 09/04 Q1010 NOSIG
Conditions at: ZYTL (DALIAN/DAIREN/LU, CN) observed 1130 UTC 19 March 2019
Temperature: 9.0°C (48°F)
Dewpoint: 4.0°C (39°F) [RH = 71%]
Pressure (altimeter): 29.82 inches Hg (1010.0 mb)
Winds: from the E (80 degrees) at 9 MPH (8 knots; 4.1 m/s)
Visibility: 3 miles ( 5 km)
Ceiling: at least 12,000 feet AGL
Clouds: sky clear below 12,000 feet AGL
Weather: BR  (mist)

METAR text: ZYTL 191100Z 08004MPS 5000 BR NSC 09/04 Q1010 NOSIG
Conditions at: ZYTL (DALIAN/DAIREN/LU, CN) observed 1100 UTC 19 March 2019
Temperature: 9.0°C (48°F)
Dewpoint: 4.0°C (39°F) [RH = 71%]
Pressure (altimeter): 29.82 inches Hg (1010.0 mb)
Winds: from the E (80 degrees) at 9 MPH (8 knots; 4.1 m/s)
Visibility: 3 miles ( 5 km)
Ceiling: at least 12,000 feet AGL
Clouds: sky clear below 12,000 feet AGL
Weather: BR  (mist)

METAR text: ZYTL 191030Z 08005MPS 5000 BR NSC 09/04 Q1010 NOSIG
Conditions at: ZYTL (DALIAN/DAIREN/LU, CN) observed 1030 UTC 19 March 2019
Temperature: 9.0°C (48°F)
Dewpoint: 4.0°C (39°F) [RH = 71%]
Pressure (altimeter): 29.82 inches Hg (1010.0 mb)
Winds: from the E (80 degrees) at 12 MPH (10 knots; 5.1 m/s)
Visibility: 3 miles ( 5 km)
Ceiling: at least 12,000 feet AGL
Clouds: sky clear below 12,000 feet AGL
Weather: BR  (mist)

METAR text: ZYTL 191000Z 08005MPS 5000 BR NSC 09/04 Q1010 NOSIG
Conditions at: ZYTL (DALIAN/DAIREN/LU, CN) observed 1000 UTC 19 March 2019
Temperature: 9.0°C (48°F)
Dewpoint: 4.0°C (39°F) [RH = 71%]
Pressure (altimeter): 29.82 inches Hg (1010.0 mb)
Winds: from the E (80 degrees) at 12 MPH (10 knots; 5.1 m/s)
Visibility: 3 miles ( 5 km)
Ceiling: at least 12,000 feet AGL
Clouds: sky clear below 12,000 feet AGL
Weather: BR  (mist)

METAR text: ZYTL 190930Z 09006MPS 5000 BR NSC 09/04 Q1009 NOSIG
Conditions at: ZYTL (DALIAN/DAIREN/LU, CN) observed 0930 UTC 19 March 2019
Temperature: 9.0°C (48°F)
Dewpoint: 4.0°C (39°F) [RH = 71%]
Pressure (altimeter): 29.79 inches Hg (1009.0 mb)
Winds: from the E (90 degrees) at 14 MPH (12 knots; 6.2 m/s)
Visibility: 3 miles ( 5 km)
Ceiling: at least 12,000 feet AGL
Clouds: sky clear below 12,000 feet AGL
Weather: BR  (mist)

METAR text: ZYTL 190900Z 09007MPS 7000 NSC 10/04 Q1009 NOSIG
Conditions at: ZYTL (DALIAN/DAIREN/LU, CN) observed 0900 UTC 19 March 2019
Temperature: 10.0°C (50°F)
Dewpoint: 4.0°C (39°F) [RH = 66%]
Pressure (altimeter): 29.79 inches Hg (1009.0 mb)
Winds: from the E (90 degrees) at 16 MPH (14 knots; 7.2 m/s)
Visibility: 4 miles ( 7 km)
Ceiling: at least 12,000 feet AGL
Clouds: sky clear below 12,000 feet AGL
Weather: no significant weather observed at this time

METAR text: ZYTL 190830Z 09006MPS 7000 NSC 11/05 Q1009 NOSIG
Conditions at: ZYTL (DALIAN/DAIREN/LU, CN) observed 0830 UTC 19 March 2019
Temperature: 11.0°C (52°F)
Dewpoint: 5.0°C (41°F) [RH = 66%]
Pressure (altimeter): 29.79 inches Hg (1009.0 mb)
Winds: from the E (90 degrees) at 14 MPH (12 knots; 6.2 m/s)
Visibility: 4 miles ( 7 km)
Ceiling: at least 12,000 feet AGL
Clouds: sky clear below 12,000 feet AGL
Weather: no significant weather observed at this time

METAR text: ZYTL 190800Z 08007MPS 8000 NSC 12/05 Q1010 NOSIG
Conditions at: ZYTL (DALIAN/DAIREN/LU, CN) observed 0800 UTC 19 March 2019
Temperature: 12.0°C (54°F)
Dewpoint: 5.0°C (41°F) [RH = 62%]
Pressure (altimeter): 29.82 inches Hg (1010.0 mb)
Winds: from the E (80 degrees) at 16 MPH (14 knots; 7.2 m/s)
Visibility: 5 miles ( 8 km)
Ceiling: at least 12,000 feet AGL
Clouds: sky clear below 12,000 feet AGL
Weather: no significant weather observed at this time

METAR text: ZYTL 190730Z 07006MPS 8000 NSC 15/05 Q1009 NOSIG
Conditions at: ZYTL (DALIAN/DAIREN/LU, CN) observed 0730 UTC 19 March 2019
Temperature: 15.0°C (59°F)
Dewpoint: 5.0°C (41°F) [RH = 51%]
Pressure (altimeter): 29.79 inches Hg (1009.0 mb)
Winds: from the ENE (70 degrees) at 14 MPH (12 knots; 6.2 m/s)
Visibility: 5 miles ( 8 km)
Ceiling: at least 12,000 feet AGL
Clouds: sky clear below 12,000 feet AGL
Weather: no significant weather observed at this time

METAR text: ZYTL 190700Z 13004MPS 8000 NSC 19/05 Q1010 NOSIG
Conditions at: ZYTL (DALIAN/DAIREN/LU, CN) observed 0700 UTC 19 March 2019
Temperature: 19.0°C (66°F)
Dewpoint: 5.0°C (41°F) [RH = 40%]
Pressure (altimeter): 29.82 inches Hg (1010.0 mb)
Winds: from the SE (130 degrees) at 9 MPH (8 knots; 4.1 m/s)
Visibility: 5 miles ( 8 km)
Ceiling: at least 12,000 feet AGL
Clouds: sky clear below 12,000 feet AGL
Weather: no significant weather observed at this time

METAR text: ZYTL 190630Z 18004MPS 140V210 8000 NSC 20/05 Q1010 NOSIG
Conditions at: ZYTL (DALIAN/DAIREN/LU, CN) observed 0630 UTC 19 March 2019
Temperature: 20.0°C (68°F)
Dewpoint: 5.0°C (41°F) [RH = 37%]
Pressure (altimeter): 29.82 inches Hg (1010.0 mb)
Winds: from the S (180 degrees) at 9 MPH (8 knots; 4.1 m/s)
Visibility: 5 miles ( 8 km)
Ceiling: at least 12,000 feet AGL
Clouds: sky clear below 12,000 feet AGL
Weather: no significant weather observed at this time

METAR text: ZYTL 190600Z VRB03MPS 8000 NSC 19/06 Q1010 NOSIG
Conditions at: ZYTL (DALIAN/DAIREN/LU, CN) observed 0600 UTC 19 March 2019
Temperature: 19.0°C (66°F)
Dewpoint: 6.0°C (43°F) [RH = 43%]
Pressure (altimeter): 29.82 inches Hg (1010.0 mb)
Winds: variable direction winds at 7 MPH (6 knots; 3.1 m/s)
Visibility: 5 miles ( 8 km)
Ceiling: at least 12,000 feet AGL
Clouds: sky clear below 12,000 feet AGL
Weather: no significant weather observed at this time

METAR text: ZYTL 190530Z 21004MPS 170V270 8000 NSC 21/06 Q1010 NOSIG
Conditions at: ZYTL (DALIAN/DAIREN/LU, CN) observed 0530 UTC 19 March 2019
Temperature: 21.0°C (70°F)
Dewpoint: 6.0°C (43°F) [RH = 38%]
Pressure (altimeter): 29.82 inches Hg (1010.0 mb)
Winds: from the SSW (210 degrees) at 9 MPH (8 knots; 4.1 m/s)
Visibility: 5 miles ( 8 km)
Ceiling: at least 12,000 feet AGL
Clouds: sky clear below 12,000 feet AGL
Weather: no significant weather observed at this time

METAR text: ZYTL 190500Z 20004MPS 150V240 8000 NSC 21/06 Q1011 NOSIG
Conditions at: ZYTL (DALIAN/DAIREN/LU, CN) observed 0500 UTC 19 March 2019
Temperature: 21.0°C (70°F)
Dewpoint: 6.0°C (43°F) [RH = 38%]
Pressure (altimeter): 29.85 inches Hg (1011.0 mb)
Winds: from the SSW (200 degrees) at 9 MPH (8 knots; 4.1 m/s)
Visibility: 5 miles ( 8 km)
Ceiling: at least 12,000 feet AGL
Clouds: sky clear below 12,000 feet AGL
Weather: no significant weather observed at this time

METAR text: ZYTL 190430Z 19004MPS 090V230 8000 NSC 20/06 Q1011 NOSIG
Conditions at: ZYTL (DALIAN/DAIREN/LU, CN) observed 0430 UTC 19 March 2019
Temperature: 20.0°C (68°F)
Dewpoint: 6.0°C (43°F) [RH = 40%]
Pressure (altimeter): 29.85 inches Hg (1011.0 mb)
Winds: from the S (190 degrees) at 9 MPH (8 knots; 4.1 m/s)
Visibility: 5 miles ( 8 km)
Ceiling: at least 12,000 feet AGL
Clouds: sky clear below 12,000 feet AGL
Weather: no significant weather observed at this time

METAR text: ZYTL 190400Z 08007MPS 8000 NSC 17/06 Q1011 NOSIG
Conditions at: ZYTL (DALIAN/DAIREN/LU, CN) observed 0400 UTC 19 March 2019
Temperature: 17.0°C (63°F)
Dewpoint: 6.0°C (43°F) [RH = 48%]
Pressure (altimeter): 29.85 inches Hg (1011.0 mb)
Winds: from the E (80 degrees) at 16 MPH (14 knots; 7.2 m/s)
Visibility: 5 miles ( 8 km)
Ceiling: at least 12,000 feet AGL
Clouds: sky clear below 12,000 feet AGL
Weather: no significant weather observed at this time

METAR text: ZYTL 190330Z 09005MPS 070V130 8000 NSC 17/05 Q1012 NOSIG
Conditions at: ZYTL (DALIAN/DAIREN/LU, CN) observed 0330 UTC 19 March 2019
Temperature: 17.0°C (63°F)
Dewpoint: 5.0°C (41°F) [RH = 45%]
Pressure (altimeter): 29.88 inches Hg (1012.0 mb)
Winds: from the E (90 degrees) at 12 MPH (10 knots; 5.1 m/s)
Visibility: 5 miles ( 8 km)
Ceiling: at least 12,000 feet AGL
Clouds: sky clear below 12,000 feet AGL
Weather: no significant weather observed at this time

METAR text: ZYTL 190300Z 10005MPS 060V210 8000 NSC 18/06 Q1012 NOSIG
Conditions at: ZYTL (DALIAN/DAIREN/LU, CN) observed 0300 UTC 19 March 2019
Temperature: 18.0°C (64°F)
Dewpoint: 6.0°C (43°F) [RH = 45%]
Pressure (altimeter): 29.88 inches Hg (1012.0 mb)
Winds: from the E (100 degrees) at 12 MPH (10 knots; 5.1 m/s)
Visibility: 5 miles ( 8 km)
Ceiling: at least 12,000 feet AGL
Clouds: sky clear below 12,000 feet AGL
Weather: no significant weather observed at this time

METAR text: ZYTL 190230Z 07006MPS 7000 NSC 16/06 Q1012 NOSIG
Conditions at: ZYTL (DALIAN/DAIREN/LU, CN) observed 0230 UTC 19 March 2019
Temperature: 16.0°C (61°F)
Dewpoint: 6.0°C (43°F) [RH = 51%]
Pressure (altimeter): 29.88 inches Hg (1012.0 mb)
Winds: from the ENE (70 degrees) at 14 MPH (12 knots; 6.2 m/s)
Visibility: 4 miles ( 7 km)
Ceiling: at least 12,000 feet AGL
Clouds: sky clear below 12,000 feet AGL
Weather: no significant weather observed at this time

METAR text: ZYTL 190200Z 07005MPS 7000 NSC 13/05 Q1012 NOSIG
Conditions at: ZYTL (DALIAN/DAIREN/LU, CN) observed 0200 UTC 19 March 2019
Temperature: 13.0°C (55°F)
Dewpoint: 5.0°C (41°F) [RH = 58%]
Pressure (altimeter): 29.88 inches Hg (1012.0 mb)
Winds: from the ENE (70 degrees) at 12 MPH (10 knots; 5.1 m/s)
Visibility: 4 miles ( 7 km)
Ceiling: at least 12,000 feet AGL
Clouds: sky clear below 12,000 feet AGL
Weather: no significant weather observed at this time

METAR text: ZYTL 190130Z 08005MPS 7000 NSC 12/05 Q1012 NOSIG
Conditions at: ZYTL (DALIAN/DAIREN/LU, CN) observed 0130 UTC 19 March 2019
Temperature: 12.0°C (54°F)
Dewpoint: 5.0°C (41°F) [RH = 62%]
Pressure (altimeter): 29.88 inches Hg (1012.0 mb)
Winds: from the E (80 degrees) at 12 MPH (10 knots; 5.1 m/s)
Visibility: 4 miles ( 7 km)
Ceiling: at least 12,000 feet AGL
Clouds: sky clear below 12,000 feet AGL
Weather: no significant weather observed at this time

METAR text: ZYTL 190100Z 07005MPS 6000 NSC 11/05 Q1013 NOSIG
Conditions at: ZYTL (DALIAN/DAIREN/LU, CN) observed 0100 UTC 19 March 2019
Temperature: 11.0°C (52°F)
Dewpoint: 5.0°C (41°F) [RH = 66%]
Pressure (altimeter): 29.91 inches Hg (1013.0 mb)
Winds: from the ENE (70 degrees) at 12 MPH (10 knots; 5.1 m/s)
Visibility: 4 miles ( 6 km)
Ceiling: at least 12,000 feet AGL
Clouds: sky clear below 12,000 feet AGL
Weather: no significant weather observed at this time

METAR text: ZYTL 190030Z 08005MPS 6000 NSC 10/05 Q1013 NOSIG
Conditions at: ZYTL (DALIAN/DAIREN/LU, CN) observed 0030 UTC 19 March 2019
Temperature: 10.0°C (50°F)
Dewpoint: 5.0°C (41°F) [RH = 71%]
Pressure (altimeter): 29.91 inches Hg (1013.0 mb)
Winds: from the E (80 degrees) at 12 MPH (10 knots; 5.1 m/s)
Visibility: 4 miles ( 6 km)
Ceiling: at least 12,000 feet AGL
Clouds: sky clear below 12,000 feet AGL
Weather: no significant weather observed at this time

METAR text: ZYTL 190000Z 08005MPS 5000 BR NSC 08/05 Q1012 BECMG TL0130 20005MPS
Conditions at: ZYTL (DALIAN/DAIREN/LU, CN) observed 0000 UTC 19 March 2019
Temperature: 8.0°C (46°F)
Dewpoint: 5.0°C (41°F) [RH = 81%]
Pressure (altimeter): 29.88 inches Hg (1012.0 mb)
Winds: from the E (80 degrees) at 12 MPH (10 knots; 5.1 m/s)
Visibility: 3 miles ( 5 km)
Ceiling: at least 12,000 feet AGL
Clouds: sky clear below 12,000 feet AGL
Weather: BR  (mist)

METAR text: ZYTL 182330Z 08005MPS 5000 BR NSC 07/05 Q1012 NOSIG
Conditions at: ZYTL (DALIAN/DAIREN/LU, CN) observed 2330 UTC 18 March 2019
Temperature: 7.0°C (45°F)
Dewpoint: 5.0°C (41°F) [RH = 87%]
Pressure (altimeter): 29.88 inches Hg (1012.0 mb)
Winds: from the E (80 degrees) at 12 MPH (10 knots; 5.1 m/s)
Visibility: 3 miles ( 5 km)
Ceiling: at least 12,000 feet AGL
Clouds: sky clear below 12,000 feet AGL
Weather: BR  (mist)

METAR text: ZYTL 182300Z 08004MPS 4000 BR NSC 06/05 Q1012 NOSIG
Conditions at: ZYTL (DALIAN/DAIREN/LU, CN) observed 2300 UTC 18 March 2019
Temperature: 6.0°C (43°F)
Dewpoint: 5.0°C (41°F) [RH = 93%]
Pressure (altimeter): 29.88 inches Hg (1012.0 mb)
Winds: from the E (80 degrees) at 9 MPH (8 knots; 4.1 m/s)
Visibility: 2.49 miles (4.01 km)
Ceiling: at least 12,000 feet AGL
Clouds: sky clear below 12,000 feet AGL
Weather: BR  (mist)

METAR text: ZYTL 182230Z 08004MPS 4000 BR NSC 05/04 Q1012 NOSIG
Conditions at: ZYTL (DALIAN/DAIREN/LU, CN) observed 2230 UTC 18 March 2019
Temperature: 5.0°C (41°F)
Dewpoint: 4.0°C (39°F) [RH = 93%]
Pressure (altimeter): 29.88 inches Hg (1012.0 mb)
Winds: from the E (80 degrees) at 9 MPH (8 knots; 4.1 m/s)
Visibility: 2.49 miles (4.01 km)
Ceiling: at least 12,000 feet AGL
Clouds: sky clear below 12,000 feet AGL
Weather: BR  (mist)

METAR text: ZYTL 182200Z 08004MPS 5000 BR NSC 05/04 Q1011 NOSIG
Conditions at: ZYTL (DALIAN/DAIREN/LU, CN) observed 2200 UTC 18 March 2019
Temperature: 5.0°C (41°F)
Dewpoint: 4.0°C (39°F) [RH = 93%]
Pressure (altimeter): 29.85 inches Hg (1011.0 mb)
Winds: from the E (80 degrees) at 9 MPH (8 knots; 4.1 m/s)
Visibility: 3 miles ( 5 km)
Ceiling: at least 12,000 feet AGL
Clouds: sky clear below 12,000 feet AGL
Weather: BR  (mist)

METAR text: ZYTL 182130Z 09005MPS 5000 BR NSC 05/04 Q1011 NOSIG
Conditions at: ZYTL (DALIAN/DAIREN/LU, CN) observed 2130 UTC 18 March 2019
Temperature: 5.0°C (41°F)
Dewpoint: 4.0°C (39°F) [RH = 93%]
Pressure (altimeter): 29.85 inches Hg (1011.0 mb)
Winds: from the E (90 degrees) at 12 MPH (10 knots; 5.1 m/s)
Visibility: 3 miles ( 5 km)
Ceiling: at least 12,000 feet AGL
Clouds: sky clear below 12,000 feet AGL
Weather: BR  (mist)

METAR text: ZYTL 182100Z 08005MPS 5000 BR NSC 06/04 Q1011 NOSIG
Conditions at: ZYTL (DALIAN/DAIREN/LU, CN) observed 2100 UTC 18 March 2019
Temperature: 6.0°C (43°F)
Dewpoint: 4.0°C (39°F) [RH = 87%]
Pressure (altimeter): 29.85 inches Hg (1011.0 mb)
Winds: from the E (80 degrees) at 12 MPH (10 knots; 5.1 m/s)
Visibility: 3 miles ( 5 km)
Ceiling: at least 12,000 feet AGL
Clouds: sky clear below 12,000 feet AGL
Weather: BR  (mist)

METAR text: ZYTL 182030Z 08004MPS 5000 BR NSC 06/04 Q1011 NOSIG
Conditions at: ZYTL (DALIAN/DAIREN/LU, CN) observed 2030 UTC 18 March 2019
Temperature: 6.0°C (43°F)
Dewpoint: 4.0°C (39°F) [RH = 87%]
Pressure (altimeter): 29.85 inches Hg (1011.0 mb)
Winds: from the E (80 degrees) at 9 MPH (8 knots; 4.1 m/s)
Visibility: 3 miles ( 5 km)
Ceiling: at least 12,000 feet AGL
Clouds: sky clear below 12,000 feet AGL
Weather: BR  (mist)

METAR text: ZYTL 182000Z 08005MPS 5000 BR NSC 06/04 Q1010 NOSIG
Conditions at: ZYTL (DALIAN/DAIREN/LU, CN) observed 2000 UTC 18 March 2019
Temperature: 6.0°C (43°F)
Dewpoint: 4.0°C (39°F) [RH = 87%]
Pressure (altimeter): 29.82 inches Hg (1010.0 mb)
Winds: from the E (80 degrees) at 12 MPH (10 knots; 5.1 m/s)
Visibility: 3 miles ( 5 km)
Ceiling: at least 12,000 feet AGL
Clouds: sky clear below 12,000 feet AGL
Weather: BR  (mist)

METAR text: ZYTL 181930Z 08004MPS 6000 NSC 07/04 Q1010 NOSIG
Conditions at: ZYTL (DALIAN/DAIREN/LU, CN) observed 1930 UTC 18 March 2019
Temperature: 7.0°C (45°F)
Dewpoint: 4.0°C (39°F) [RH = 81%]
Pressure (altimeter): 29.82 inches Hg (1010.0 mb)
Winds: from the E (80 degrees) at 9 MPH (8 knots; 4.1 m/s)
Visibility: 4 miles ( 6 km)
Ceiling: at least 12,000 feet AGL
Clouds: sky clear below 12,000 feet AGL
Weather: no significant weather observed at this time

METAR text: ZYTL 181900Z 08003MPS CAVOK 08/04 Q1010 NOSIG
Conditions at: ZYTL (DALIAN/DAIREN/LU, CN) observed 1900 UTC 18 March 2019
Temperature: 8.0°C (46°F)
Dewpoint: 4.0°C (39°F) [RH = 76%]
Pressure (altimeter): 29.82 inches Hg (1010.0 mb)
Winds: from the E (80 degrees) at 7 MPH (6 knots; 3.1 m/s)
Visibility: 6 or more miles (10+ km)
Ceiling: ceiling and visibility are OK
Clouds: unknown
Weather: no significant weather observed at this time

Forecast for: ZYTL (DALIAN/DAIREN/LU, CN)
Text: TAF ZYTL 200306Z 2006/2106 10006G12MPS 6000 -SHRA BKN026 TX12/2006Z TN03/2021Z
Forecast period: 0600 UTC 20 March 2019 to 0200 UTC 21 March 2019
Forecast type: FROM: standard forecast or significant change
Winds: from the E (100 degrees) at 14 MPH (12 knots; 6.2 m/s)
gusting to 26 MPH (23 knots; 11.8 m/s)
Visibility: 4 miles (6 km)
Ceiling: 2600 feet AGL
Clouds: broken clouds at 2600 feet AGL
Weather: -SHRA  (light rain showers)
Text: BECMG 2102/2103 35008G16MPS
Forecast period: 0200 to 0600 UTC 21 March 2019
Forecast type: BECOMING: Conditions expected to become as follows by 0300 UTC 21 March 2019
Winds: from the N (350 degrees) at 18 MPH (16 knots; 8.2 m/s)
gusting to 36 MPH (31 knots; 15.9 m/s)
Visibility: 4 miles (6 km)
Ceiling: 2600 feet AGL
Clouds: broken clouds at 2600 feet AGL
Weather: -SHRA  (light rain showers)